Time;durP1;ratioP1;P1;durP2;ratioP2;P2;SDS_P1;SDS_P2;PMS_P1;PMS_P2;Temp;Humidity;BMP_temperature;BMP_pressure;BME280_temperature;BME280_humidity;BME280_pressure;Samples;Min_cycle;Max_cycle;Signal;HPM_P1;HPM_P2
2021/04/22 00:00:17;;;;;;;11.13;9.47;;;5.30;99.90;;;5.71;43.90;94223.81;5085245;28;20664;-66
2021/04/22 00:02:43;;;;;;;11.50;9.57;;;5.20;99.90;;;5.55;43.29;94227.13;5076653;28;20701;-67
2021/04/22 00:05:35;;;;;;;9.33;8.43;;;5.10;99.90;;;5.61;43.92;94234.09;5092919;28;20202;-68
2021/04/22 00:08:07;;;;;;;10.83;9.43;;;5.20;99.90;;;5.58;44.34;94231.91;5055190;28;20195;-67
2021/04/22 00:10:41;;;;;;;10.57;9.47;;;5.10;99.90;;;5.60;44.19;94233.31;5055330;28;20163;-69
2021/04/22 00:13:09;;;;;;;12.20;9.20;;;5.10;99.90;;;5.53;44.50;94226.56;5082791;28;20183;-67
2021/04/22 00:15:35;;;;;;;11.30;9.80;;;5.00;99.90;;;5.52;44.22;94235.47;5094373;28;20168;-69
2021/04/22 00:18:05;;;;;;;11.33;9.43;;;5.00;99.90;;;5.52;44.56;94233.63;5059815;28;20198;-69
2021/04/22 00:20:31;;;;;;;11.43;9.67;;;5.00;99.90;;;5.47;44.82;94224.81;5053925;28;20189;-68
2021/04/22 00:22:57;;;;;;;10.70;8.80;;;5.00;99.90;;;5.34;44.77;94217.91;5089484;28;20194;-68
2021/04/22 00:25:23;;;;;;;10.33;9.23;;;4.90;99.90;;;5.27;44.85;94227.72;5074700;28;20193;-68
2021/04/22 00:27:50;;;;;;;11.43;9.67;;;4.80;99.90;;;5.19;44.83;94220.16;5055958;28;20271;-66
2021/04/22 00:30:19;;;;;;;10.33;9.13;;;4.90;99.90;;;5.27;44.96;94230.34;5052854;28;20266;-67
2021/04/22 00:32:46;;;;;;;10.80;9.60;;;4.80;99.90;;;5.23;45.10;94229.22;5078329;28;20194;-67
2021/04/22 00:35:13;;;;;;;10.97;9.30;;;4.70;99.90;;;5.16;45.19;94229.31;5091750;28;20267;-68
2021/04/22 00:37:40;;;;;;;10.80;9.43;;;4.70;99.90;;;5.23;45.55;94233.66;5083542;28;20228;-68
2021/04/22 00:40:11;;;;;;;11.53;9.53;;;4.60;99.90;;;5.19;45.74;94235.94;5092148;28;20238;-66
2021/04/22 00:42:42;;;;;;;11.23;8.40;;;4.70;99.90;;;5.13;45.80;94234.19;5076678;28;20190;-68
2021/04/22 00:45:09;;;;;;;11.90;8.83;;;4.60;99.90;;;5.18;45.49;94229.88;5073248;28;20213;-66
2021/04/22 00:47:37;;;;;;;11.90;9.33;;;4.80;99.90;;;5.15;45.44;94234.75;5075607;28;20272;-67
2021/04/22 00:50:10;;;;;;;12.10;9.07;;;5.20;99.90;;;5.16;45.71;94237.19;5072886;28;20216;-68
2021/04/22 00:52:37;;;;;;;10.67;8.67;;;4.70;99.90;;;5.17;46.05;94235.38;5080266;28;20194;-66
2021/04/22 00:55:03;;;;;;;10.53;8.83;;;4.60;99.90;;;5.12;45.86;94230.78;5058001;28;20219;-68
2021/04/22 00:57:29;;;;;;;10.83;9.33;;;4.60;99.90;;;5.13;45.55;94235.00;5072080;28;20209;-66
2021/04/22 00:59:59;;;;;;;11.10;9.50;;;4.20;99.90;;;5.06;46.06;94228.22;5060397;28;20214;-68
2021/04/22 01:02:25;;;;;;;10.80;9.30;;;4.60;99.90;;;4.99;46.21;94230.13;5080320;28;20191;-66
2021/04/22 01:04:51;;;;;;;10.57;8.50;;;4.50;99.90;;;4.99;46.10;94236.19;5073677;28;20190;-66
2021/04/22 01:07:19;;;;;;;10.20;9.20;;;4.60;99.90;;;5.01;46.58;94247.28;5068990;28;20647;-66
2021/04/22 01:09:45;;;;;;;10.23;8.73;;;4.60;99.90;;;4.96;46.39;94241.88;5091105;28;20276;-67
2021/04/22 01:12:14;;;;;;;10.30;9.07;;;4.50;99.90;;;5.03;46.33;94239.19;5077013;28;20295;-68
2021/04/22 01:14:40;;;;;;;11.07;9.40;;;4.60;99.90;;;5.01;46.70;94247.28;5057647;28;20185;-66
2021/04/22 01:17:09;;;;;;;9.87;8.40;;;4.70;99.90;;;5.07;46.66;94246.38;5073849;28;20190;-66
2021/04/22 01:19:36;;;;;;;11.77;8.60;;;4.60;99.90;;;4.95;46.93;94237.66;5076302;28;20195;-67
2021/04/22 01:22:02;;;;;;;9.20;8.20;;;4.60;99.90;;;4.89;46.89;94240.38;5060543;28;20193;-69
2021/04/22 01:24:30;;;;;;;9.50;7.97;;;4.50;99.90;;;4.83;47.01;94246.50;5110526;28;20188;-67
2021/04/22 01:26:59;;;;;;;9.87;8.70;;;4.40;99.90;;;4.93;47.15;94259.91;5090464;28;20222;-66
2021/04/22 01:29:27;;;;;;;9.77;8.77;;;4.50;99.90;;;4.85;47.19;94254.94;5094100;28;20297;-66
2021/04/22 01:31:53;;;;;;;11.17;9.40;;;4.40;99.90;;;4.80;46.84;94260.84;5062111;28;20193;-67
2021/04/22 01:34:19;;;;;;;11.27;9.80;;;4.40;99.90;;;4.87;47.32;94260.81;5068100;28;20190;-69
2021/04/22 01:36:45;;;;;;;12.33;9.30;;;5.00;99.90;;;4.80;47.05;94262.69;5084138;28;20240;-67
2021/04/22 01:39:15;;;;;;;10.67;9.57;;;4.40;99.90;;;4.90;47.07;94270.84;5073070;28;20190;-66
2021/04/22 01:41:42;;;;;;;11.93;9.67;;;4.40;99.90;;;4.96;47.05;94267.34;5060731;28;20217;-67
2021/04/22 01:44:09;;;;;;;11.70;9.60;;;4.40;99.90;;;5.00;47.71;94269.28;5074814;28;20519;-67
2021/04/22 01:46:38;;;;;;;10.00;9.00;;;4.40;99.90;;;5.04;47.82;94264.41;5101004;28;20549;-66
2021/04/22 01:49:06;;;;;;;10.40;9.30;;;6.00;99.90;;;5.13;47.69;94268.34;5089165;28;20221;-66
2021/04/22 01:51:32;;;;;;;11.03;9.30;;;4.50;99.90;;;5.20;47.97;94270.88;5071165;28;20195;-68
2021/04/22 01:54:01;;;;;;;12.20;9.17;;;4.50;99.90;;;5.21;48.09;94265.41;5077203;28;20183;-66
2021/04/22 01:56:27;;;;;;;11.10;8.60;;;4.50;99.90;;;5.11;48.44;94259.88;5054603;28;20187;-67
2021/04/22 01:58:55;;;;;;;10.10;8.53;;;4.50;99.90;;;5.12;48.30;94262.28;5047018;28;20553;-67
2021/04/22 02:01:21;;;;;;;8.83;7.93;;;4.70;99.90;;;5.16;48.25;94271.34;5082227;28;20193;-66
2021/04/22 02:03:50;;;;;;;9.37;8.47;;;4.70;99.90;;;5.15;48.32;94274.16;5086593;28;20198;-67
2021/04/22 02:06:19;;;;;;;10.73;9.63;;;4.70;99.90;;;5.17;48.43;94275.53;5057007;28;20225;-66
2021/04/22 02:08:45;;;;;;;10.37;8.93;;;4.80;99.90;;;5.21;48.13;94278.53;5060115;28;20201;-67
2021/04/22 02:11:12;;;;;;;10.37;9.30;;;5.70;99.90;;;5.28;48.64;94278.44;5085256;28;20671;-66
2021/04/22 02:13:38;;;;;;;10.63;9.43;;;4.70;99.90;;;5.39;48.50;94272.44;5078513;28;20170;-68
2021/04/22 02:16:04;;;;;;;11.73;8.70;;;4.70;99.90;;;5.33;48.80;94271.50;5070171;28;20202;-66
2021/04/22 02:18:30;;;;;;;10.50;8.77;;;4.70;99.90;;;5.37;48.72;94271.88;5039516;28;20619;-66
2021/04/22 02:20:56;;;;;;;11.13;9.10;;;4.80;99.90;;;5.35;48.99;94268.66;5084520;28;20194;-67
2021/04/22 02:23:25;;;;;;;9.10;8.13;;;4.80;99.90;;;5.40;49.03;94274.84;5058222;28;20665;-65
2021/04/22 02:25:51;;;;;;;9.93;8.60;;;4.80;99.90;;;5.45;49.31;94274.16;5054295;28;20210;-65
2021/04/22 02:28:17;;;;;;;13.47;9.70;;;4.90;99.90;;;5.53;49.04;94281.75;5055945;28;20170;-66
2021/04/22 02:30:45;;;;;;;10.80;9.70;;;5.70;99.90;;;5.51;49.38;94275.91;5072052;28;20190;-67
2021/04/22 02:33:15;;;;;;;10.87;9.33;;;4.90;99.90;;;5.56;49.25;94278.66;5062720;28;20541;-66
2021/04/22 02:35:43;;;;;;;10.83;9.70;;;5.00;99.90;;;5.59;49.37;94275.59;5059397;28;20234;-67
2021/04/22 02:38:11;;;;;;;11.17;9.97;;;5.00;99.90;;;5.62;49.45;94283.03;5086175;28;20859;-67
2021/04/22 02:40:40;;;;;;;10.23;9.03;;;5.00;99.90;;;5.58;49.76;94277.41;5053509;28;20223;-66
2021/04/22 02:43:11;;;;;;;9.80;8.80;;;5.10;99.90;;;5.67;49.87;94272.66;5066144;28;20182;-66
2021/04/22 02:45:47;;;;;;;10.97;9.77;;;5.10;99.90;;;5.64;50.06;94279.13;5088206;28;20676;-67
2021/04/22 02:48:18;;;;;;;11.10;9.93;;;5.10;99.90;;;5.72;50.08;94280.66;5069110;28;20185;-67
2021/04/22 02:50:48;;;;;;;11.30;9.70;;;5.20;99.90;;;5.77;49.91;94280.00;5060027;28;20210;-67
2021/04/22 02:53:15;;;;;;;11.10;9.57;;;5.10;99.90;;;5.72;49.77;94271.97;5089127;28;20185;-67
2021/04/22 02:55:42;;;;;;;12.97;9.70;;;5.90;99.90;;;5.71;49.95;94276.41;5087627;28;20191;-66
2021/04/22 02:58:10;;;;;;;13.13;9.30;;;5.10;99.90;;;5.72;50.38;94283.28;5023177;28;20286;-67
2021/04/22 03:00:36;;;;;;;10.17;9.17;;;5.10;99.90;;;5.80;50.46;94288.22;5074370;28;20298;-67
2021/04/22 03:03:04;;;;;;;10.20;9.10;;;5.20;99.90;;;5.81;50.58;94291.66;5066624;28;20234;-66
2021/04/22 03:05:31;;;;;;;9.73;8.73;;;5.20;99.90;;;5.84;50.26;94292.00;5092154;28;20574;-66
2021/04/22 03:07:57;;;;;;;11.90;9.97;;;5.20;99.90;;;5.83;50.82;94285.16;5075258;28;20646;-69
2021/04/22 03:10:26;;;;;;;9.93;8.93;;;5.20;99.90;;;5.87;50.62;94290.78;5075475;28;20573;-68
2021/04/22 03:12:55;;;;;;;10.07;9.07;;;5.20;99.90;;;5.94;51.02;94283.59;5077625;28;20676;-67
2021/04/22 03:15:22;;;;;;;9.67;8.67;;;5.60;99.90;;;5.96;51.22;94290.22;5057117;28;20229;-67
2021/04/22 03:17:52;;;;;;;9.70;8.70;;;5.30;99.90;;;5.93;50.84;94282.00;5058726;28;20189;-67
2021/04/22 03:20:20;;;;;;;9.33;8.33;;;5.30;99.90;;;5.92;51.15;94283.81;5059762;28;20257;-68
2021/04/22 03:22:47;;;;;;;9.70;8.57;;;5.30;99.90;;;5.99;51.01;94294.22;5045873;28;20214;-67
2021/04/22 03:25:16;;;;;;;10.30;9.03;;;5.30;99.90;;;5.97;51.26;94286.59;5105160;28;20231;-67
2021/04/22 03:27:42;;;;;;;9.57;7.93;;;5.40;99.90;;;5.92;51.44;94283.81;5064837;28;20263;-67
2021/04/22 03:30:12;;;;;;;8.27;7.47;;;5.40;99.90;;;5.88;51.25;94287.13;5079021;28;20650;-68
2021/04/22 03:32:43;;;;;;;9.13;8.23;;;5.40;99.90;;;5.92;51.53;94278.56;5070378;28;20194;-66
2021/04/22 03:35:11;;;;;;;10.33;8.30;;;5.40;99.90;;;5.97;51.28;94281.31;5083230;28;20230;-67
2021/04/22 03:37:38;;;;;;;9.03;8.13;;;5.60;99.90;;;6.01;51.69;94292.97;5068201;28;20615;-67
2021/04/22 03:40:08;;;;;;;10.87;8.43;;;6.80;99.90;;;6.05;51.64;94285.44;5057462;28;20196;-66
2021/04/22 03:42:34;;;;;;;9.33;8.37;;;5.50;99.90;;;6.09;51.44;94284.75;5079009;28;20194;-66
2021/04/22 03:45:00;;;;;;;9.50;8.20;;;5.50;99.90;;;6.13;51.74;94285.09;5064584;28;20190;-66
2021/04/22 03:47:26;;;;;;;8.90;7.87;;;5.60;99.90;;;6.11;52.07;94285.31;5073792;28;20188;-67
2021/04/22 03:49:55;;;;;;;8.73;7.83;;;6.60;99.90;;;6.13;51.94;94295.63;5065135;28;20214;-67
2021/04/22 03:52:20;;;;;;;9.17;7.67;;;5.60;99.90;;;6.16;52.14;94285.47;5106660;28;20248;-66
2021/04/22 03:54:50;;;;;;;8.30;7.50;;;5.60;99.90;;;6.18;52.53;94291.28;5083326;28;20526;-66
2021/04/22 03:57:16;;;;;;;8.50;7.23;;;5.60;99.90;;;6.17;52.56;94288.91;5058008;28;20197;-66
2021/04/22 03:59:42;;;;;;;8.00;7.20;;;5.60;99.90;;;6.21;51.98;94287.41;5056213;28;20192;-67
2021/04/22 04:02:15;;;;;;;8.73;7.83;;;5.70;99.90;;;6.29;52.00;94294.97;5091796;28;20220;-67
2021/04/22 04:04:45;;;;;;;8.77;7.87;;;5.80;99.90;;;6.39;52.49;94305.72;5061605;28;20276;-67
2021/04/22 04:07:11;;;;;;;7.90;7.03;;;6.20;99.90;;;6.40;52.22;94290.72;5072337;28;20219;-67
2021/04/22 04:09:36;;;;;;;8.47;7.57;;;5.90;99.90;;;6.38;52.22;94300.69;5073802;28;20192;-67
2021/04/22 04:12:05;;;;;;;8.87;7.97;;;5.90;99.90;;;6.29;52.90;94294.16;5054420;28;20204;-67
2021/04/22 04:14:32;;;;;;;7.93;7.13;;;5.80;99.90;;;6.31;52.37;94295.56;5039533;28;20187;-67
2021/04/22 04:16:58;;;;;;;7.93;7.07;;;5.80;99.90;;;6.40;52.61;94299.44;5067999;28;20217;-66
2021/04/22 04:19:24;;;;;;;8.43;7.53;;;5.80;99.90;;;6.31;52.69;94294.75;5092610;28;20673;-68
2021/04/22 04:21:50;;;;;;;8.43;7.23;;;5.70;99.90;;;6.16;52.95;94282.81;5091832;28;20235;-68
2021/04/22 04:24:16;;;;;;;8.13;7.33;;;5.60;99.90;;;6.11;53.02;94290.59;5075080;28;20190;-67
2021/04/22 04:26:42;;;;;;;10.43;7.57;;;5.60;99.90;;;6.03;52.56;94292.75;5098379;28;20209;-68
2021/04/22 04:29:10;;;;;;;8.50;7.70;;;5.50;99.90;;;5.93;52.95;94295.94;5056634;28;20198;-66
2021/04/22 04:31:36;;;;;;;8.27;7.47;;;5.50;99.90;;;5.89;52.94;94288.72;5074526;28;20183;-66
2021/04/22 04:34:02;;;;;;;8.33;7.47;;;5.40;99.90;;;5.84;53.25;94293.84;5090665;28;20190;-67
2021/04/22 04:36:30;;;;;;;8.83;7.93;;;5.30;99.90;;;5.86;53.35;94300.50;5068234;28;20218;-68
2021/04/22 04:38:56;;;;;;;8.13;7.33;;;5.60;99.90;;;5.89;53.14;94304.50;5037471;28;20586;-66
2021/04/22 04:41:22;;;;;;;9.37;7.87;;;5.30;99.90;;;5.87;53.64;94310.00;5090475;28;20255;-67
2021/04/22 04:43:48;;;;;;;9.43;7.67;;;5.30;99.90;;;5.93;53.44;94305.66;5082935;28;20284;-68
2021/04/22 04:46:19;;;;;;;8.63;7.83;;;5.40;99.90;;;5.97;53.10;94315.53;5094314;28;20212;-67
2021/04/22 04:48:49;;;;;;;8.90;7.73;;;5.40;99.90;;;6.08;53.23;94317.34;5065921;28;20234;-66
2021/04/22 04:51:15;;;;;;;9.10;7.77;;;5.40;99.90;;;6.07;53.66;94318.41;5070692;28;20195;-67
2021/04/22 04:53:44;;;;;;;8.00;7.20;;;5.50;99.90;;;6.11;53.41;94314.25;5082445;28;20223;-67
2021/04/22 04:56:10;;;;;;;8.30;7.50;;;5.70;99.90;;;6.22;53.49;94331.09;5091758;28;20558;-68
2021/04/22 04:58:41;;;;;;;8.57;7.57;;;5.60;99.90;;;6.35;54.11;94338.78;5051847;28;20201;-66
2021/04/22 05:01:07;;;;;;;8.50;7.60;;;5.80;99.90;;;6.43;53.96;94340.28;5072356;28;20187;-67
2021/04/22 05:03:35;;;;;;;7.63;6.93;;;5.80;99.90;;;6.55;53.82;94341.88;5048834;28;20256;-67
2021/04/22 05:06:01;;;;;;;8.27;7.10;;;6.00;99.90;;;6.64;53.73;94339.72;5103108;28;20203;-67
2021/04/22 05:08:27;;;;;;;8.00;7.20;;;6.00;99.90;;;6.80;54.06;94346.94;5056155;28;20263;-66
2021/04/22 05:10:55;;;;;;;7.53;6.83;;;7.10;99.90;;;6.95;54.69;94347.25;5092194;28;20195;-66
2021/04/22 05:13:21;;;;;;;7.63;6.83;;;6.30;99.90;;;7.08;54.46;94343.59;5092106;28;20680;-68
2021/04/22 05:15:46;;;;;;;7.97;7.27;;;6.40;99.90;;;7.18;54.61;94344.59;5091060;28;20272;-67
2021/04/22 05:18:12;;;;;;;7.60;6.80;;;7.00;99.90;;;7.30;54.72;94352.47;5045640;28;20681;-67
2021/04/22 05:20:39;;;;;;;7.70;6.97;;;6.70;99.90;;;7.41;54.08;94353.50;5082655;28;20574;-67
2021/04/22 05:23:07;;;;;;;8.77;7.13;;;6.80;99.90;;;7.40;54.52;94357.97;5078703;28;20187;-69
2021/04/22 05:25:34;;;;;;;7.67;6.40;;;6.80;99.90;;;7.48;54.29;94359.44;5074158;28;20218;-67
2021/04/22 05:28:02;;;;;;;7.23;6.20;;;6.90;99.90;;;7.58;54.37;94359.63;5060369;28;20195;-66
2021/04/22 05:30:28;;;;;;;6.77;6.13;;;7.00;99.90;;;7.80;54.58;94368.50;5084104;28;20238;-67
2021/04/22 05:32:54;;;;;;;7.13;6.47;;;7.20;99.90;;;7.90;54.77;94359.97;5047898;28;20182;-66
2021/04/22 05:35:23;;;;;;;7.20;6.50;;;7.30;99.90;;;8.00;55.04;94368.88;5075270;28;20209;-66
2021/04/22 05:37:49;;;;;;;7.07;6.37;;;7.50;99.90;;;8.17;54.62;94372.34;5086742;28;20190;-68
2021/04/22 05:40:16;;;;;;;7.03;6.33;;;7.60;99.90;;;8.43;55.54;94368.31;5059454;28;20198;-66
2021/04/22 05:42:44;;;;;;;9.20;6.90;;;7.80;99.90;;;8.56;54.99;94372.50;5070722;28;20193;-67
2021/04/22 05:45:11;;;;;;;7.83;7.03;;;8.00;99.90;;;8.63;55.21;94370.47;5053601;28;20371;-67
2021/04/22 05:47:39;;;;;;;6.70;5.63;;;8.10;99.90;;;8.83;54.34;94385.84;5068386;28;20208;-68
2021/04/22 05:50:05;;;;;;;6.70;6.07;;;8.30;99.90;;;9.01;55.39;94378.47;5047244;28;20183;-67
2021/04/22 05:52:31;;;;;;;7.43;6.43;;;8.50;99.90;;;9.16;55.23;94376.03;5056678;28;20191;-66
2021/04/22 05:54:57;;;;;;;7.17;6.43;;;8.60;99.90;;;9.30;54.77;94379.13;5053227;28;20251;-67
2021/04/22 05:57:26;;;;;;;7.50;6.03;;;8.80;99.90;;;9.45;54.76;94370.59;5085699;28;20204;-67
2021/04/22 05:59:52;;;;;;;7.53;5.77;;;8.90;99.90;;;9.69;55.19;94380.69;5083362;28;20198;-68
2021/04/22 06:02:18;;;;;;;8.00;6.10;;;9.10;99.90;;;9.73;55.37;94381.00;5072708;28;20192;-66
2021/04/22 06:04:44;;;;;;;6.60;6.00;;;9.20;99.90;;;10.03;54.92;94393.78;5091438;28;20188;-68
2021/04/22 06:07:11;;;;;;;6.23;5.73;;;9.50;99.90;;;10.26;55.07;94389.03;5067769;28;20212;-66
2021/04/22 06:09:38;;;;;;;6.10;5.57;;;9.70;99.90;;;10.48;55.08;94383.66;5062679;28;20189;-70
2021/04/22 06:12:06;;;;;;;8.10;6.20;;;9.90;99.90;;;10.88;55.36;94391.13;5043828;28;20577;-69
2021/04/22 06:14:32;;;;;;;7.03;6.00;;;10.40;99.90;;;11.31;55.46;94403.38;5049596;28;20197;-66
2021/04/22 06:16:58;;;;;;;5.50;5.00;;;10.80;99.90;;;12.13;55.66;94405.38;5089816;28;20193;-67
2021/04/22 06:19:25;;;;;;;7.13;5.57;;;11.60;99.90;;;13.17;55.77;94399.66;5108923;27;20628;-68
2021/04/22 06:21:51;;;;;;;5.60;5.03;;;12.30;99.90;;;13.99;55.60;94393.88;5090101;28;20189;-67
2021/04/22 06:24:17;;;;;;;6.10;5.40;;;13.60;99.90;;;14.12;55.45;94382.63;5062088;28;20277;-67
2021/04/22 06:26:44;;;;;;;6.33;5.17;;;13.90;99.90;;;13.96;55.82;94354.44;5056976;28;20760;-68
2021/04/22 06:29:12;;;;;;;5.30;4.80;;;14.00;99.90;;;13.59;55.30;94354.06;5079500;28;20189;-67
2021/04/22 06:31:38;;;;;;;5.13;4.67;;;13.80;99.90;;;13.33;55.02;94370.09;5068313;28;20186;-69
2021/04/22 06:34:04;;;;;;;5.53;4.53;;;13.50;99.90;;;15.02;55.33;94465.88;5076447;28;20619;-67
2021/04/22 06:36:33;;;;;;;5.37;4.40;;;14.40;99.90;;;17.14;55.15;94466.25;5073363;28;20203;-69
2021/04/22 06:38:59;;;;;;;6.17;4.20;;;16.40;99.90;;;18.93;55.05;94426.72;5092478;28;20193;-71
2021/04/22 06:41:24;;;;;;;5.07;4.57;;;18.50;99.90;;;20.73;54.99;94429.59;5085054;28;20203;-69
2021/04/22 06:43:50;;;;;;;4.70;4.30;;;20.60;99.90;;;21.92;54.76;94394.81;5067325;28;20185;-67
2021/04/22 06:46:17;;;;;;;4.20;3.87;;;22.30;95.40;;;22.13;54.77;94395.66;5093133;28;20213;-70
2021/04/22 06:48:43;;;;;;;4.60;4.20;;;22.90;90.40;;;23.16;54.28;94430.25;5073391;28;20186;-67
2021/04/22 06:51:09;;;;;;;4.27;3.90;;;24.00;90.70;;;24.11;53.70;94443.69;5066779;28;20198;-67
2021/04/22 06:53:35;;;;;;;4.50;3.90;;;25.20;86.30;;;24.91;53.86;94389.78;5070182;28;20178;-67
2021/04/22 06:56:01;;;;;;;4.87;3.70;;;26.30;78.20;;;24.42;53.71;94294.94;5071066;28;20190;-68
2021/04/22 06:58:27;;;;;;;4.77;4.20;;;26.30;74.10;;;22.96;53.40;94339.09;5101469;28;20218;-66
2021/04/22 07:00:55;;;;;;;4.73;4.33;;;25.20;73.40;;;23.50;53.29;94402.91;5080956;28;20175;-67
2021/04/22 07:03:23;;;;;;;4.33;3.93;;;25.80;72.80;;;24.26;52.54;94420.59;5077538;28;20332;-67
2021/04/22 07:05:49;;;;;;;4.53;4.13;;;26.50;69.50;;;25.13;52.48;94434.59;5105706;28;20304;-68
2021/04/22 07:08:15;;;;;;;4.27;3.90;;;27.30;67.50;;;24.40;52.09;94351.41;5074229;28;20277;-69
2021/04/22 07:10:43;;;;;;;4.47;4.07;;;26.70;65.60;;;25.17;51.92;94454.50;5076151;28;20174;-66
2021/04/22 07:13:11;;;;;;;4.30;3.90;;;27.40;67.50;;;25.36;51.25;94441.88;5073938;28;20337;-66
2021/04/22 07:15:37;;;;;;;4.13;3.80;;;27.70;64.70;;;25.77;51.20;94393.78;5073564;28;20535;-67
2021/04/22 07:18:06;;;;;;;4.33;3.93;;;28.20;62.00;;;26.77;51.11;94365.22;5069203;28;20190;-69
2021/04/22 07:20:34;;;;;;;4.27;3.87;;;29.10;60.90;;;26.81;51.03;94447.69;5071315;28;20201;-69
2021/04/22 07:23:05;;;;;;;4.30;4.00;;;29.50;60.10;;;27.44;50.11;94386.53;5068377;28;20182;-68
2021/04/22 07:25:34;;;;;;;6.17;4.17;;;30.20;59.80;;;27.27;49.83;94432.44;5065889;28;20207;-68
2021/04/22 07:28:08;;;;;;;4.43;4.03;;;30.60;57.10;;;27.60;49.92;94449.09;5071572;28;20647;-69
2021/04/22 07:30:37;;;;;;;4.70;4.20;;;30.40;57.60;;;28.59;49.47;94341.06;5064691;28;20569;-71
2021/04/22 07:33:07;;;;;;;4.43;4.03;;;31.20;54.80;;;27.34;49.28;94386.28;5069816;28;20247;-69
2021/04/22 07:35:36;;;;;;;4.30;4.00;;;30.40;56.40;;;28.73;48.98;94393.16;5055539;28;20377;-71
2021/04/22 07:38:06;;;;;;;4.40;4.00;;;31.20;54.40;;;27.73;48.65;94425.25;5070737;28;20644;-70
2021/04/22 07:40:35;;;;;;;4.00;3.70;;;30.60;55.40;;;28.60;47.78;94490.78;5073380;28;20571;-69
2021/04/22 07:43:01;;;;;;;4.50;4.10;;;31.30;56.60;;;30.34;47.61;94451.09;5093681;28;20194;-74
2021/04/22 07:45:38;;;;;;;6.10;3.73;;;32.80;54.40;;;30.23;47.17;94348.97;5083442;28;20256;-72
2021/04/22 07:48:08;;;;;;;4.27;3.87;;;33.40;51.20;;;30.08;46.98;94409.41;5059062;28;20193;-73
2021/04/22 07:50:35;;;;;;;4.17;3.87;;;33.50;51.30;;;30.94;46.46;94439.91;5089040;28;20175;-67
2021/04/22 07:53:05;;;;;;;4.35;3.95;;;34.20;49.70;;;31.45;45.90;94409.72;5072595;28;20518;-69
2021/04/22 07:55:40;;;;;;;4.25;3.85;;;34.90;48.00;;;32.35;45.56;94437.13;5073742;28;20193;-68
2021/04/22 07:58:07;;;;;;;4.30;3.90;;;35.60;48.50;;;33.13;45.29;94456.44;5076398;28;21101;-72
2021/04/22 08:00:34;;;;;;;6.38;5.53;;;36.30;46.50;;;33.12;44.94;94416.41;5055250;28;20187;-71
2021/04/22 08:03:02;;;;;;;4.18;3.88;;;36.50;45.50;;;31.95;44.61;94329.22;5072352;28;20544;-74
2021/04/22 08:05:33;;;;;;;3.95;3.58;;;35.80;44.80;;;31.92;43.97;94411.50;5073388;28;20203;-74
2021/04/22 08:07:59;;;;;;;3.63;3.40;;;35.60;46.10;;;31.77;43.96;94382.44;5090688;28;20184;-74
2021/04/22 08:10:33;;;;;;;4.10;3.72;;;35.60;45.10;;;32.92;43.08;94462.69;5070837;28;20197;-73
2021/04/22 08:13:03;;;;;;;3.78;3.47;;;36.40;46.40;;;33.13;42.52;94426.22;5071947;28;20275;-75
2021/04/22 08:15:34;;;;;;;3.60;3.33;;;36.60;44.80;;;33.24;42.29;94447.00;5059840;28;20186;-72
2021/04/22 08:18:02;;;;;;;4.47;3.95;;;36.80;45.40;;;32.51;42.22;94377.91;5086592;28;20190;-74
2021/04/22 08:20:31;;;;;;;3.95;3.50;;;36.40;44.00;;;32.32;41.97;94405.75;5074826;28;21164;-74
2021/04/22 08:23:04;;;;;;;3.65;3.40;;;36.50;44.10;;;33.03;41.14;94453.28;5072555;28;20194;-75
2021/04/22 08:25:45;;;;;;;3.50;3.20;;;37.30;43.50;;;33.10;41.39;94502.00;5072884;28;20209;-74
2021/04/22 08:28:18;;;;;;;4.63;4.28;;;37.20;43.70;;;34.29;40.36;94469.09;5071087;28;20227;-74
2021/04/22 08:30:52;;;;;;;4.28;3.90;;;38.30;42.20;;;34.70;40.24;94447.25;5073183;28;20558;-73
2021/04/22 08:33:21;;;;;;;8.13;3.50;;;38.70;41.70;;;34.42;40.20;94448.19;5069660;28;20169;-72
2021/04/22 08:35:48;;;;;;;4.55;3.80;;;38.70;41.80;;;35.33;39.44;94416.41;5077181;28;20214;-72
2021/04/22 08:38:17;;;;;;;4.78;3.42;;;39.50;41.10;;;35.18;39.50;94378.34;5087500;28;20190;-71
2021/04/22 08:40:45;;;;;;;3.78;3.53;;;39.60;41.10;;;34.84;38.69;94398.34;5086624;28;20178;-76
2021/04/22 08:43:12;;;;;;;4.28;3.97;;;39.30;41.10;;;34.08;38.54;94343.38;5072822;28;20210;-74
2021/04/22 08:45:39;;;;;;;4.78;4.20;;;38.50;44.00;;;33.23;38.69;94342.97;5067145;28;20225;-73
2021/04/22 08:48:06;;;;;;;4.38;4.07;;;37.60;44.10;;;33.56;38.32;94394.69;5071404;28;20582;-73
2021/04/22 08:50:36;;;;;;;4.43;4.03;;;37.50;43.80;;;33.26;37.69;94430.13;5085324;28;20256;-74
2021/04/22 08:53:11;;;;;;;4.30;4.00;;;36.80;44.20;;;33.48;37.61;94429.66;5087093;28;20657;-74
2021/04/22 08:55:40;;;;;;;4.00;3.70;;;37.10;43.60;;;33.96;37.06;94306.09;5072971;28;20182;-73
2021/04/22 08:58:07;;;;;;;4.45;4.15;;;37.60;42.70;;;33.76;37.00;94387.56;5055555;28;21856;-73
2021/04/22 09:00:56;;;;;;;4.18;3.88;;;37.60;41.90;;;31.86;36.89;94371.94;5074352;28;20701;-71
2021/04/22 09:03:24;;;;;;;4.07;3.78;;;36.00;44.70;;;31.67;36.62;94452.53;5057499;28;20272;-72
2021/04/22 09:05:51;;;;;;;4.32;4.00;;;35.50;45.10;;;32.75;36.32;94477.22;5070954;28;20614;-74
2021/04/22 09:08:22;;;;;;;5.10;4.70;;;36.20;43.10;;;32.92;35.73;94430.53;5071852;28;20750;-72
2021/04/22 09:10:51;;;;;;;4.63;3.92;;;36.70;42.70;;;33.39;35.37;94421.06;5070091;28;20186;-76
2021/04/22 09:13:18;;;;;;;4.25;3.70;;;36.90;43.70;;;32.94;35.54;94392.44;5070169;28;20193;-76
2021/04/22 09:15:48;;;;;;;3.97;3.67;;;36.60;43.80;;;33.22;35.58;94446.63;5074103;28;20182;-76
2021/04/22 09:18:18;;;;;;;5.00;4.50;;;36.50;43.40;;;31.40;35.30;94367.00;5049342;28;20432;-74
2021/04/22 09:20:52;;;;;;;4.30;3.90;;;35.60;45.00;;;31.20;34.96;94461.63;5070168;28;20205;-73
2021/04/22 09:23:23;;;;;;;4.63;4.25;;;34.90;43.90;;;31.44;34.94;94488.41;5071954;28;20671;-73
2021/04/22 09:26:10;;;;;;;4.00;3.70;;;34.50;44.20;;;32.69;34.44;94518.00;5054585;28;20206;-74
2021/04/22 09:28:46;;;;;;;4.78;3.80;;;35.20;43.00;;;33.28;34.61;94438.75;5069668;28;20183;-74
2021/04/22 09:31:26;;;;;;;4.40;4.03;;;35.90;42.80;;;34.19;33.78;94522.25;5061870;28;20201;-75
2021/04/22 09:34:15;;;;;;;4.32;3.92;;;37.10;41.50;;;33.46;33.67;94371.56;5054073;28;20174;-74
2021/04/22 09:36:45;;;;;;;4.97;4.47;;;37.30;41.80;;;33.95;33.27;94540.38;5057920;28;20662;-74
2021/04/22 09:39:17;;;;;;;3.95;3.65;;;36.60;42.80;;;33.92;33.50;94392.59;5043772;28;20187;-73
2021/04/22 09:41:46;;;;;;;4.43;4.03;;;36.90;41.90;;;32.91;33.57;94257.84;5072589;28;20183;-75
2021/04/22 09:44:15;;;;;;;4.47;4.18;;;36.70;40.60;;;33.14;33.01;94408.56;5062045;28;20178;-75
2021/04/22 09:46:48;;;;;;;4.93;4.40;;;36.20;42.40;;;33.30;32.51;94494.91;5102007;27;20306;-72
2021/04/22 09:49:19;;;;;;;4.75;4.35;;;35.90;43.90;;;32.94;32.52;94384.19;5053365;28;20187;-74
2021/04/22 09:51:49;;;;;;;4.22;3.90;;;36.20;43.10;;;33.26;32.36;94488.63;5051058;28;20202;-73
2021/04/22 09:54:21;;;;;;;4.60;4.30;;;36.70;43.00;;;34.15;31.92;94453.44;5091759;28;20878;-69
2021/04/22 09:56:59;;;;;;;3.92;3.63;;;37.40;41.40;;;34.72;31.87;94491.72;5070122;28;20186;-71
2021/04/22 09:59:28;;;;;;;4.88;4.03;;;37.80;39.70;;;33.97;32.14;94514.06;5054536;28;20197;-75
2021/04/22 10:02:07;;;;;;;4.45;4.05;;;37.00;41.00;;;32.53;31.58;94381.06;5061853;28;20603;-71
2021/04/22 10:04:44;;;;;;;4.70;4.40;;;36.20;40.60;;;33.13;31.80;94479.22;5067034;28;20272;-70
2021/04/22 10:07:33;;;;;;;4.80;4.40;;;36.20;41.90;;;35.09;30.64;94535.16;5054494;28;20210;-73
2021/04/22 10:10:13;;;;;;;4.70;4.40;;;37.80;41.20;;;34.88;30.68;94373.50;5083962;28;20594;-73
2021/04/22 10:12:39;;;;;;;4.80;4.40;;;38.50;41.70;;;34.73;31.35;94451.94;5099786;28;20269;-81
2021/04/22 10:15:32;;;;;;;5.45;4.30;;;38.10;41.80;;;33.79;31.01;94474.78;5056553;28;20305;-71
2021/04/22 10:18:09;;;;;;;4.88;4.53;;;37.40;40.20;;;33.29;30.59;94457.59;5089417;28;20705;-72
2021/04/22 10:20:39;;;;;;;4.82;4.50;;;36.40;41.10;;;31.95;30.13;94397.00;5051554;28;20183;-71
2021/04/22 10:23:08;;;;;;;4.80;4.50;;;35.00;42.90;;;32.39;30.43;94485.38;5067377;28;20458;-74
2021/04/22 10:25:39;;;;;;;5.45;4.78;;;35.20;43.70;;;32.54;30.16;94395.56;5061126;28;20706;-73
2021/04/22 10:28:13;;;;;;;4.93;4.53;;;35.00;43.90;;;34.01;30.30;94453.50;5066182;28;20193;-74
2021/04/22 10:30:47;;;;;;;5.20;4.80;;;36.50;41.50;;;34.28;30.05;94393.97;5078993;28;20247;-73